< Typhoon 200412 2004 Season Typhoon 200414 >
Typhoon 200413 (RANANIM)
General InformationTrack Information on Google MapsDetailed Wind InformationAccess Analytics MapList of All Images || NewsDisaster Info.WeblogTrackbackTyphoon FrontResourceGoogle EarthGE AnimationAtom FeedGeoJSON
Detalied Best Track (Time Zone = UTC)
Year Month Day Hour Lat. Long. Pressure (hPa) Wind (kt) Class Image Chart
2004 8 6 00 15.3 136.8 1002 0 2 Image Chart
2004 8 6 06 15.3 134.7 1000 0 2 Image Chart
2004 8 6 12 15.4 133.0 1000 0 2 Image Chart
2004 8 6 18 15.7 131.5 998 0 2 Image Chart
2004 8 7 00 15.8 131.0 998 0 2 Image Chart
2004 8 7 06 15.9 130.6 998 0 2 Image Chart
2004 8 7 12 16.0 130.4 998 0 2 Image Chart
2004 8 7 18 16.4 130.1 996 0 2 Image Chart
2004 8 8 00 17.0 130.0 996 0 2 Image Chart
2004 8 8 06 17.7 130.0 994 0 2 Image Chart
2004 8 8 12 18.2 130.3 992 35 3 Image Chart
2004 8 8 18 19.0 130.5 990 45 3 Image Chart
2004 8 9 00 19.6 130.3 985 50 4 Image Chart
2004 8 9 06 20.1 129.8 980 55 4 Image Chart
2004 8 9 12 20.4 129.1 980 55 4 Image Chart
2004 8 9 18 20.8 128.6 980 55 4 Image Chart
2004 8 10 00 21.3 128.2 975 60 4 Image Chart
2004 8 10 06 22.0 128.1 970 65 5 Image Chart
2004 8 10 12 22.4 127.5 970 65 5 Image Chart
2004 8 10 18 22.8 126.8 965 70 5 Image Chart
2004 8 10 21 23.0 126.5 965 70 5 Image Chart
2004 8 11 00 23.3 126.2 965 70 5 Image Chart
2004 8 11 03 23.5 126.0 965 70 5 Image Chart
2004 8 11 06 23.8 125.6 960 75 5 Image Chart
2004 8 11 09 24.1 125.4 955 75 5 Image Chart
2004 8 11 12 24.4 125.2 950 80 5 Image Chart
2004 8 11 15 24.9 124.8 950 80 5 Image Chart
2004 8 11 18 25.3 124.4 950 80 5 Image Chart
2004 8 11 21 25.7 124.1 950 80 5 Image Chart
2004 8 12 00 26.4 123.6 950 80 5 Image Chart
2004 8 12 06 27.4 122.6 950 80 5 Image Chart
2004 8 12 12 28.1 121.3 960 60 4 Image Chart
2004 8 12 18 28.3 120.2 975 40 3 Image Chart
2004 8 13 00 28.7 119.0 986 0 2 Image Chart
2004 8 13 06 29.2 117.6 992 0 2 Image Chart
2004 8 13 12 29.0 116.8 996 0 2 Image Chart
2004 8 13 18 28.9 116.3 996 0 2 Image Chart
2004 8 14 00 29.1 115.8 996 0 2 Image Chart
2004 8 14 06 29.3 114.9 998 0 2 Image Chart
2004 8 14 12 29.1 113.8 1000 0 2 Image Chart
2004 8 14 18 28.8 112.7 1002 0 2 Image Chart
2004 8 15 00 28.9 111.9 1004 0 2 Image Chart
2004 8 15 06 29.2 110.9 1004 0 2 Image Chart
Japan Meteorological Agency Best Track Data | Correction Date : 2006-01-18
< Typhoon 200412 2004 Season Typhoon 200414 >

Help